createdAt,value
2023-11-23T00:00:18.841Z,2.33
2023-11-23T00:01:18.266Z,2.44
2023-11-23T00:02:13.427Z,2.55
2023-11-23T00:03:08.556Z,2.61
2023-11-23T00:04:03.641Z,2.65
2023-11-23T00:04:58.764Z,2.69
2023-11-23T00:05:53.813Z,2.66
2023-11-23T00:06:48.886Z,2.58
2023-11-23T00:07:43.921Z,2.45
2023-11-23T00:08:39.023Z,2.37
2023-11-23T00:09:34.068Z,2.29
2023-11-23T00:10:29.050Z,2.19
2023-11-23T00:11:24.079Z,2.13
2023-11-23T00:12:19.209Z,2.08
2023-11-23T00:13:14.282Z,2.04
2023-11-23T00:14:09.500Z,2.01
2023-11-23T00:15:05.197Z,2.02
2023-11-23T00:16:00.397Z,2.04
2023-11-23T00:16:56.223Z,2.11
2023-11-23T00:17:51.275Z,2.20
2023-11-23T00:18:46.784Z,2.28
2023-11-23T00:19:42.300Z,2.36
2023-11-23T00:20:37.525Z,2.43
2023-11-23T00:21:32.658Z,2.48
2023-11-23T00:22:29.092Z,2.52
2023-11-23T00:23:24.312Z,2.55
2023-11-23T00:24:20.208Z,2.59
2023-11-23T00:25:15.620Z,2.60
2023-11-23T00:26:10.615Z,2.58
2023-11-23T00:27:06.364Z,2.53
2023-11-23T00:28:01.587Z,2.50
2023-11-23T00:28:57.311Z,2.49
2023-11-23T00:29:52.848Z,2.54
2023-11-23T00:30:47.662Z,2.61
2023-11-23T00:31:42.842Z,2.64
2023-11-23T00:32:39.214Z,2.63
2023-11-23T00:33:34.529Z,2.56
2023-11-23T00:34:30.170Z,2.55
2023-11-23T00:35:25.382Z,2.58
2023-11-23T00:36:20.438Z,2.60
2023-11-23T00:37:16.384Z,2.59
2023-11-23T00:38:11.550Z,2.60
2023-11-23T00:39:07.509Z,2.64
2023-11-23T00:40:02.712Z,2.64
2023-11-23T00:40:57.933Z,2.64
2023-11-23T00:41:53.705Z,2.59
2023-11-23T00:42:48.991Z,2.52
2023-11-23T00:43:44.105Z,2.52
2023-11-23T00:44:40.646Z,2.56
2023-11-23T00:45:35.540Z,2.58
2023-11-23T00:46:30.862Z,2.60
2023-11-23T00:47:25.940Z,2.55
2023-11-23T00:48:23.710Z,2.49
2023-11-23T00:49:18.757Z,2.44
2023-11-23T00:50:14.031Z,2.40
2023-11-23T00:51:09.235Z,2.32
2023-11-23T00:52:05.543Z,2.24
2023-11-23T00:53:00.725Z,2.15
2023-11-23T00:53:55.919Z,2.08
2023-11-23T00:54:51.660Z,2.02
2023-11-23T00:55:47.018Z,2.00
2023-11-23T00:56:42.090Z,1.97
2023-11-23T00:57:37.261Z,1.98
2023-11-23T00:58:32.428Z,1.97
2023-11-23T00:59:27.768Z,1.97
2023-11-23T01:00:24.028Z,1.91
2023-11-23T01:01:19.012Z,1.90
2023-11-23T01:02:14.255Z,1.86
2023-11-23T01:03:09.355Z,1.84
2023-11-23T01:04:04.501Z,1.82
2023-11-23T01:05:00.910Z,1.82
2023-11-23T01:05:55.998Z,1.80
2023-11-23T01:06:51.177Z,1.80
2023-11-23T01:07:46.366Z,1.81
2023-11-23T01:08:41.443Z,1.82
2023-11-23T01:09:36.459Z,1.84
2023-11-23T01:10:31.558Z,1.97
2023-11-23T01:11:26.542Z,2.05
2023-11-23T01:12:21.738Z,2.14
2023-11-23T01:13:16.766Z,2.17
2023-11-23T01:14:11.845Z,2.16
2023-11-23T01:15:06.927Z,2.19
2023-11-23T01:16:02.148Z,2.18
2023-11-23T01:16:57.870Z,2.18
2023-11-23T01:17:52.940Z,2.26
2023-11-23T01:18:47.938Z,2.33
2023-11-23T01:19:43.018Z,2.38
2023-11-23T01:20:38.108Z,2.38
2023-11-23T01:21:33.148Z,2.35
2023-11-23T01:22:28.166Z,2.33
2023-11-23T01:23:23.225Z,2.33
2023-11-23T01:24:18.512Z,2.31
2023-11-23T01:25:13.528Z,2.35
2023-11-23T01:26:08.550Z,2.40
2023-11-23T01:27:03.703Z,2.38
2023-11-23T01:27:58.665Z,2.34
2023-11-23T01:28:53.716Z,2.31
2023-11-23T01:29:48.786Z,2.32
2023-11-23T01:30:43.867Z,2.29
2023-11-23T01:31:38.949Z,2.23
2023-11-23T01:32:34.088Z,2.18
2023-11-23T01:33:30.834Z,2.14
2023-11-23T01:34:26.177Z,2.07
2023-11-23T01:35:21.040Z,2.00
2023-11-23T01:36:18.907Z,1.99
2023-11-23T01:37:11.095Z,2.00
2023-11-23T01:38:06.168Z,2.01
2023-11-23T01:39:01.255Z,2.02
2023-11-23T01:39:56.287Z,2.01
2023-11-23T01:40:51.890Z,1.99
2023-11-23T01:41:47.076Z,1.99
2023-11-23T01:42:42.209Z,2.00
2023-11-23T01:43:37.584Z,1.97
2023-11-23T01:44:32.730Z,1.93
2023-11-23T01:45:28.233Z,1.91
2023-11-23T01:46:23.134Z,1.87
2023-11-23T01:47:18.191Z,1.80
2023-11-23T01:48:13.437Z,1.75
2023-11-23T01:49:08.468Z,1.69
2023-11-23T01:50:03.596Z,1.66
2023-11-23T01:50:58.836Z,1.61
2023-11-23T01:51:53.957Z,1.57
2023-11-23T01:52:49.036Z,1.53
2023-11-23T01:53:44.112Z,1.51
2023-11-23T01:54:39.192Z,1.51
2023-11-23T01:55:34.189Z,1.50
2023-11-23T01:56:29.415Z,1.48
2023-11-23T01:57:24.408Z,1.49
2023-11-23T01:58:19.481Z,1.49
2023-11-23T01:59:14.511Z,1.47
2023-11-23T02:00:09.601Z,1.44
2023-11-23T02:01:04.789Z,1.45
2023-11-23T02:01:59.688Z,1.44
2023-11-23T02:02:54.805Z,1.41
2023-11-23T02:03:49.947Z,1.41
2023-11-23T02:04:44.835Z,1.39
2023-11-23T02:05:39.934Z,1.40
2023-11-23T02:06:34.957Z,1.42
2023-11-23T02:07:29.990Z,1.48
2023-11-23T02:08:25.063Z,1.51
2023-11-23T02:09:20.256Z,1.54
2023-11-23T02:10:15.525Z,1.54
2023-11-23T02:11:10.599Z,1.56
2023-11-23T02:12:05.810Z,1.58
2023-11-23T02:13:00.734Z,1.57
2023-11-23T02:13:55.729Z,1.59
2023-11-23T02:14:50.786Z,1.59
2023-11-23T02:15:46.420Z,1.58
2023-11-23T02:16:41.579Z,1.57
2023-11-23T02:17:36.841Z,1.55
2023-11-23T02:18:32.020Z,1.53
2023-11-23T02:19:27.030Z,1.50
2023-11-23T02:20:22.198Z,1.51
2023-11-23T02:21:17.359Z,1.54
2023-11-23T02:22:12.724Z,1.61
2023-11-23T02:23:07.611Z,1.64
2023-11-23T02:24:02.820Z,1.68
2023-11-23T02:24:57.936Z,1.74
2023-11-23T02:25:53.208Z,1.75
2023-11-23T02:26:48.488Z,1.79
2023-11-23T02:27:43.671Z,1.81
2023-11-23T02:28:38.692Z,1.80
2023-11-23T02:29:33.887Z,1.75
2023-11-23T02:30:29.169Z,1.71
2023-11-23T02:31:24.246Z,1.67
2023-11-23T02:32:19.481Z,1.62
2023-11-23T02:33:14.644Z,1.53
2023-11-23T02:34:09.688Z,1.43
2023-11-23T02:35:04.769Z,1.32
2023-11-23T02:35:59.851Z,1.26
2023-11-23T02:36:55.047Z,1.21
2023-11-23T02:37:53.078Z,1.17
2023-11-23T02:38:48.254Z,1.15
2023-11-23T02:39:43.279Z,1.16
2023-11-23T02:40:38.373Z,1.15
2023-11-23T02:41:33.359Z,1.14
2023-11-23T02:42:28.628Z,1.16
2023-11-23T02:43:23.499Z,1.20
2023-11-23T02:44:18.615Z,1.24
2023-11-23T02:45:13.751Z,1.22
2023-11-23T02:46:08.769Z,1.22
2023-11-23T02:47:03.773Z,1.21
2023-11-23T02:47:58.944Z,1.16
2023-11-23T02:48:54.063Z,1.13
2023-11-23T02:49:49.061Z,1.12
2023-11-23T02:50:44.136Z,1.11
2023-11-23T02:51:39.194Z,1.07
2023-11-23T02:52:34.280Z,0.98
2023-11-23T02:53:29.311Z,0.92
2023-11-23T02:54:24.478Z,0.90
2023-11-23T02:55:19.538Z,0.89
2023-11-23T02:56:14.663Z,0.90
2023-11-23T02:57:09.761Z,0.89
2023-11-23T02:58:04.763Z,0.87
2023-11-23T02:58:59.824Z,0.86
2023-11-23T02:59:54.898Z,0.85
2023-11-23T03:00:49.964Z,0.84
2023-11-23T03:01:44.971Z,0.84
2023-11-23T03:02:40.081Z,0.84
2023-11-23T03:03:35.146Z,0.87
2023-11-23T03:04:30.336Z,0.88
2023-11-23T03:05:25.385Z,0.87
2023-11-23T03:06:20.431Z,0.89
2023-11-23T03:07:15.476Z,0.90
2023-11-23T03:08:10.545Z,0.93
2023-11-23T03:09:05.566Z,0.95
2023-11-23T03:10:00.720Z,0.99
2023-11-23T03:10:55.723Z,1.05
2023-11-23T03:11:50.840Z,1.10
2023-11-23T03:12:45.858Z,1.13
2023-11-23T03:13:41.165Z,1.15
2023-11-23T03:14:36.175Z,1.15
2023-11-23T03:15:31.379Z,1.14
2023-11-23T03:16:26.542Z,1.13
2023-11-23T03:17:21.774Z,1.12
2023-11-23T03:18:17.227Z,1.08
2023-11-23T03:19:12.177Z,1.05
2023-11-23T03:20:07.313Z,1.02
2023-11-23T03:21:02.545Z,0.96
2023-11-23T03:21:58.004Z,0.90
2023-11-23T03:22:52.884Z,0.81
2023-11-23T03:23:48.056Z,0.73
2023-11-23T03:24:43.256Z,0.69
2023-11-23T03:25:38.416Z,0.64
2023-11-23T03:26:33.589Z,0.64
2023-11-23T03:27:28.756Z,0.67
2023-11-23T03:28:23.990Z,0.74
2023-11-23T03:29:19.162Z,0.81
2023-11-23T03:30:14.444Z,0.91
2023-11-23T03:31:09.443Z,1.06
2023-11-23T03:32:04.635Z,1.15
2023-11-23T03:33:00.052Z,1.20
2023-11-23T03:33:55.007Z,1.20
2023-11-23T03:34:50.357Z,1.21
2023-11-23T03:35:45.407Z,1.22
2023-11-23T03:36:40.536Z,1.24
2023-11-23T03:37:35.747Z,1.26
2023-11-23T03:38:30.942Z,1.27
2023-11-23T03:39:26.090Z,1.27
2023-11-23T03:40:20.970Z,1.27
2023-11-23T03:41:16.048Z,1.25
2023-11-23T03:42:11.124Z,1.22
2023-11-23T03:43:06.283Z,1.24
2023-11-23T03:44:01.444Z,1.23
2023-11-23T03:44:56.754Z,1.22
2023-11-23T03:45:51.824Z,1.22
2023-11-23T03:46:46.993Z,1.19
2023-11-23T03:47:42.094Z,1.16
2023-11-23T03:48:37.216Z,1.14
2023-11-23T03:49:32.230Z,1.20
2023-11-23T03:50:27.278Z,1.25
2023-11-23T03:51:22.396Z,1.24
2023-11-23T03:52:17.444Z,1.22
2023-11-23T03:53:12.546Z,1.21
2023-11-23T03:54:07.483Z,1.19
2023-11-23T03:55:02.498Z,1.16
2023-11-23T03:55:57.518Z,1.14
2023-11-23T03:56:52.607Z,1.09
2023-11-23T03:57:47.629Z,1.03
2023-11-23T03:58:42.662Z,0.99
2023-11-23T03:59:37.875Z,0.95
2023-11-23T04:00:33.103Z,0.93
2023-11-23T04:01:28.370Z,0.91
2023-11-23T04:02:23.464Z,0.90
2023-11-23T04:03:18.623Z,0.89
2023-11-23T04:04:13.778Z,0.86
2023-11-23T04:05:09.657Z,0.83
2023-11-23T04:06:04.855Z,0.83
2023-11-23T04:07:00.755Z,0.83
2023-11-23T04:07:55.884Z,0.82
2023-11-23T04:08:51.261Z,0.81
2023-11-23T04:09:46.897Z,0.79
2023-11-23T04:10:42.104Z,0.77
2023-11-23T04:11:37.306Z,0.74
2023-11-23T04:12:33.467Z,0.72
2023-11-23T04:13:28.816Z,0.71
2023-11-23T04:14:24.642Z,0.71
2023-11-23T04:15:19.696Z,0.72
2023-11-23T04:16:14.765Z,0.73
2023-11-23T04:17:10.648Z,0.71
2023-11-23T04:18:05.897Z,0.72
2023-11-23T04:19:01.654Z,0.72
2023-11-23T04:19:56.791Z,0.72
2023-11-23T04:20:52.182Z,0.73
2023-11-23T04:21:47.880Z,0.73
2023-11-23T04:22:43.137Z,0.74
2023-11-23T04:23:38.356Z,0.71
2023-11-23T04:24:34.536Z,0.70
2023-11-23T04:25:29.726Z,0.68
2023-11-23T04:26:25.488Z,0.67
2023-11-23T04:27:20.661Z,0.64
2023-11-23T04:28:15.843Z,0.60
2023-11-23T04:29:11.631Z,0.57
2023-11-23T04:30:06.866Z,0.57
2023-11-23T04:31:02.686Z,0.58
2023-11-23T04:31:57.750Z,0.59
2023-11-23T04:32:53.128Z,0.59
2023-11-23T04:33:49.187Z,0.59
2023-11-23T04:34:44.081Z,0.62
2023-11-23T04:35:39.379Z,0.64
2023-11-23T04:36:35.396Z,0.65
2023-11-23T04:37:30.602Z,0.66
2023-11-23T04:38:26.361Z,0.67
2023-11-23T04:39:21.636Z,0.69
2023-11-23T04:40:16.826Z,0.70
2023-11-23T04:41:12.584Z,0.71
2023-11-23T04:42:07.794Z,0.70
2023-11-23T04:43:03.686Z,0.69
2023-11-23T04:43:58.815Z,0.66
2023-11-23T04:44:54.385Z,0.60
2023-11-23T04:45:49.849Z,0.54
2023-11-23T04:46:45.170Z,0.49
2023-11-23T04:47:40.234Z,0.43
2023-11-23T04:48:36.691Z,0.39
2023-11-23T04:49:31.763Z,0.38
2023-11-23T04:50:27.664Z,0.40
2023-11-23T04:51:22.834Z,0.43
2023-11-23T04:52:18.204Z,0.47
2023-11-23T04:53:13.787Z,0.49
2023-11-23T04:54:09.051Z,0.54
2023-11-23T04:55:04.792Z,0.62
2023-11-23T04:56:00.001Z,0.67
2023-11-23T04:56:55.197Z,0.68
2023-11-23T04:57:51.077Z,0.68
2023-11-23T04:58:46.143Z,0.70
2023-11-23T04:59:41.334Z,0.70
2023-11-23T05:00:37.773Z,0.68
2023-11-23T05:01:32.823Z,0.64
2023-11-23T05:02:28.540Z,0.62
2023-11-23T05:03:23.803Z,0.59
2023-11-23T05:04:18.877Z,0.57
2023-11-23T05:05:14.064Z,0.57
2023-11-23T05:06:09.261Z,0.58
2023-11-23T05:07:05.162Z,0.54
2023-11-23T05:08:00.367Z,0.53
2023-11-23T05:08:55.700Z,0.47
2023-11-23T05:09:51.970Z,0.43
2023-11-23T05:10:47.393Z,0.41
2023-11-23T05:11:42.989Z,0.40
2023-11-23T05:12:38.186Z,0.43
2023-11-23T05:13:33.489Z,0.41
2023-11-23T05:14:29.257Z,0.37
2023-11-23T05:15:24.472Z,0.36
2023-11-23T05:16:20.378Z,0.33
2023-11-23T05:17:15.408Z,0.30
2023-11-23T05:18:10.791Z,0.29
2023-11-23T05:19:06.570Z,0.29
2023-11-23T05:20:01.796Z,0.31
2023-11-23T05:20:57.302Z,0.39
2023-11-23T05:21:52.214Z,0.42
2023-11-23T05:22:47.365Z,0.42
2023-11-23T05:23:42.434Z,0.40
2023-11-23T05:24:37.584Z,0.42
2023-11-23T05:25:36.305Z,0.43
2023-11-23T05:26:31.377Z,0.45
2023-11-23T05:27:26.658Z,0.50
2023-11-23T05:28:21.704Z,0.56
2023-11-23T05:29:16.747Z,0.60
2023-11-23T05:30:11.801Z,0.63
2023-11-23T05:31:06.933Z,0.65
2023-11-23T05:32:01.958Z,0.62
2023-11-23T05:32:57.077Z,0.58
2023-11-23T05:33:52.173Z,0.55
2023-11-23T05:34:47.230Z,0.53
2023-11-23T05:35:42.328Z,0.50
2023-11-23T05:36:37.370Z,0.49
2023-11-23T05:37:32.439Z,0.51
2023-11-23T05:38:27.535Z,0.50
2023-11-23T05:39:22.644Z,0.50
2023-11-23T05:40:17.741Z,0.50
2023-11-23T05:41:12.794Z,0.51
2023-11-23T05:42:07.891Z,0.50
2023-11-23T05:43:05.790Z,0.52
2023-11-23T05:43:57.940Z,0.53
2023-11-23T05:44:53.004Z,0.54
2023-11-23T05:45:48.053Z,0.51
2023-11-23T05:46:43.295Z,0.48
2023-11-23T05:47:38.382Z,0.51
2023-11-23T05:48:33.498Z,0.53
2023-11-23T05:49:28.506Z,0.49
2023-11-23T05:50:23.587Z,0.48
2023-11-23T05:51:18.680Z,0.49
2023-11-23T05:52:13.601Z,0.49
2023-11-23T05:53:08.704Z,0.51
2023-11-23T05:54:03.948Z,0.55
2023-11-23T05:54:59.284Z,0.53
2023-11-23T05:55:55.572Z,0.52
2023-11-23T05:56:50.850Z,0.51
2023-11-23T05:57:46.583Z,0.50
2023-11-23T05:58:41.804Z,0.51
2023-11-23T05:59:36.862Z,0.50
2023-11-23T06:00:32.827Z,0.47
2023-11-23T06:01:28.031Z,0.46
2023-11-23T06:02:23.993Z,0.46
2023-11-23T06:03:21.224Z,0.42
2023-11-23T06:04:14.327Z,0.40
2023-11-23T06:05:10.089Z,0.38
2023-11-23T06:06:05.300Z,0.39
2023-11-23T06:07:00.641Z,0.36
2023-11-23T06:07:56.741Z,0.36
2023-11-23T06:08:52.003Z,0.38
2023-11-23T06:09:47.807Z,0.43
2023-11-23T06:10:42.973Z,0.49
2023-11-23T06:11:38.332Z,0.55
2023-11-23T06:12:33.957Z,0.59
2023-11-23T06:13:29.162Z,0.64
2023-11-23T06:14:25.038Z,0.69
2023-11-23T06:15:20.103Z,0.77
2023-11-23T06:16:15.437Z,0.78
2023-11-23T06:17:11.175Z,0.78
2023-11-23T06:18:13.530Z,0.84
2023-11-23T06:19:04.087Z,0.85
2023-11-23T06:19:56.701Z,0.84
2023-11-23T06:20:52.692Z,0.82
2023-11-23T06:21:47.699Z,0.82
2023-11-23T06:22:43.086Z,0.75
2023-11-23T06:23:39.189Z,0.68
2023-11-23T06:24:34.436Z,0.62
2023-11-23T06:25:30.267Z,0.59
2023-11-23T06:26:25.565Z,0.59
2023-11-23T06:27:21.173Z,0.56
2023-11-23T06:28:16.634Z,0.53
2023-11-23T06:29:11.972Z,0.53
2023-11-23T06:30:07.717Z,0.62
2023-11-23T06:31:02.989Z,0.69
2023-11-23T06:32:00.396Z,0.70
2023-11-23T06:32:54.071Z,0.70
2023-11-23T06:33:49.513Z,0.71
2023-11-23T06:34:44.701Z,0.72
2023-11-23T06:35:41.061Z,0.72
2023-11-23T06:36:36.303Z,0.72
2023-11-23T06:37:32.246Z,0.75
2023-11-23T06:38:27.286Z,0.79
2023-11-23T06:39:22.662Z,0.78
2023-11-23T06:40:18.295Z,0.79
2023-11-23T06:41:13.697Z,0.77
2023-11-23T06:42:09.515Z,0.74
2023-11-23T06:43:04.872Z,0.73
2023-11-23T06:44:00.112Z,0.75
2023-11-23T06:44:55.924Z,0.76
2023-11-23T06:45:51.173Z,0.79
2023-11-23T06:46:46.700Z,0.80
2023-11-23T06:47:42.704Z,0.84
2023-11-23T06:48:38.102Z,0.88
2023-11-23T06:49:33.834Z,0.89
2023-11-23T06:50:29.252Z,0.93
2023-11-23T06:51:24.614Z,0.95
2023-11-23T06:52:19.769Z,0.93
2023-11-23T06:53:14.842Z,0.95
2023-11-23T06:54:09.960Z,0.98
2023-11-23T06:55:04.930Z,0.96
2023-11-23T06:56:00.062Z,0.95
2023-11-23T06:56:55.066Z,0.94
2023-11-23T06:57:50.217Z,0.89
2023-11-23T06:58:45.142Z,0.87
2023-11-23T06:59:40.272Z,0.88
2023-11-23T07:00:35.554Z,0.89
2023-11-23T07:01:30.490Z,0.87
2023-11-23T07:02:25.735Z,0.85
2023-11-23T07:03:20.605Z,0.84
2023-11-23T07:04:15.596Z,0.84
2023-11-23T07:05:14.587Z,0.85
2023-11-23T07:06:09.632Z,0.85
2023-11-23T07:07:04.829Z,0.86
2023-11-23T07:07:59.650Z,0.87
2023-11-23T07:08:54.695Z,0.88
2023-11-23T07:09:49.733Z,0.88
2023-11-23T07:10:44.787Z,0.85
2023-11-23T07:11:39.774Z,0.85
2023-11-23T07:12:34.905Z,0.87
2023-11-23T07:13:29.940Z,0.90
2023-11-23T07:14:24.987Z,0.88
2023-11-23T07:15:20.168Z,0.88
2023-11-23T07:16:15.190Z,0.97
2023-11-23T07:17:10.077Z,1.34
2023-11-23T07:18:05.244Z,1.82
2023-11-23T07:19:00.184Z,2.05
2023-11-23T07:19:55.240Z,2.07
2023-11-23T07:20:50.436Z,2.24
2023-11-23T07:21:45.539Z,2.64
2023-11-23T07:22:40.926Z,3.13
2023-11-23T07:23:36.302Z,3.59
2023-11-23T07:24:35.163Z,4.07
2023-11-23T07:25:30.940Z,4.34
2023-11-23T07:26:25.847Z,4.28
2023-11-23T07:27:21.258Z,4.07
2023-11-23T07:28:16.478Z,4.01
2023-11-23T07:29:11.397Z,4.19
2023-11-23T07:30:06.457Z,4.43
2023-11-23T07:31:01.566Z,4.73
2023-11-23T07:31:56.586Z,5.11
2023-11-23T07:32:51.748Z,5.36
2023-11-23T07:33:46.688Z,5.60
2023-11-23T07:34:41.751Z,5.88
2023-11-23T07:35:36.792Z,6.10
2023-11-23T07:36:31.872Z,6.23
2023-11-23T07:37:26.898Z,6.11
2023-11-23T07:39:48.395Z,6.12
2023-11-23T07:40:43.400Z,6.38
2023-11-23T07:41:38.877Z,6.67
2023-11-23T07:42:34.231Z,6.87
2023-11-23T07:43:29.871Z,6.84
2023-11-23T07:44:25.023Z,7.17
2023-11-23T07:45:20.706Z,7.30
2023-11-23T07:46:15.842Z,7.35
2023-11-23T07:47:11.300Z,7.32
2023-11-23T07:48:06.845Z,7.43
2023-11-23T07:49:02.088Z,7.50
2023-11-23T07:49:57.513Z,7.45
2023-11-23T07:50:52.890Z,7.30
2023-11-23T07:51:48.162Z,7.21
2023-11-23T07:52:43.658Z,6.84
2023-11-23T07:53:39.111Z,6.57
2023-11-23T07:54:34.325Z,6.59
2023-11-23T07:55:29.610Z,6.24
2023-11-23T07:56:24.961Z,6.07
2023-11-23T07:57:20.465Z,6.28
2023-11-23T07:58:15.774Z,6.08
2023-11-23T07:59:11.011Z,6.28
2023-11-23T08:00:06.762Z,6.34
2023-11-23T08:01:01.940Z,6.63
2023-11-23T08:01:57.151Z,6.92
2023-11-23T08:02:52.648Z,7.08
2023-11-23T08:03:48.101Z,7.05
2023-11-23T08:04:43.176Z,7.17
2023-11-23T08:05:38.631Z,7.41
2023-11-23T08:06:34.041Z,7.69
2023-11-23T08:07:29.402Z,7.82
2023-11-23T08:08:24.914Z,7.88
2023-11-23T08:09:20.151Z,8.12
2023-11-23T08:10:15.524Z,8.29
2023-11-23T08:11:10.877Z,8.00
2023-11-23T08:12:06.312Z,7.85
2023-11-23T08:13:01.640Z,7.89
2023-11-23T08:13:56.918Z,8.01
2023-11-23T08:14:52.384Z,7.92
2023-11-23T08:15:47.751Z,7.51
2023-11-23T08:16:43.196Z,7.56
2023-11-23T08:17:38.376Z,7.76
2023-11-23T08:18:40.334Z,7.85
2023-11-23T08:19:30.223Z,8.03
2023-11-23T08:20:24.357Z,8.28
2023-11-23T08:21:19.669Z,8.41
2023-11-23T08:22:15.048Z,8.41
2023-11-23T08:23:10.365Z,8.29
2023-11-23T08:24:05.867Z,8.21
2023-11-23T08:25:01.285Z,8.15
2023-11-23T08:25:56.577Z,8.32
2023-11-23T08:26:51.899Z,8.41
2023-11-23T08:27:47.250Z,8.19
2023-11-23T08:28:42.556Z,7.73
2023-11-23T08:29:38.107Z,7.43
2023-11-23T08:30:33.565Z,7.37
2023-11-23T08:31:28.782Z,7.66
2023-11-23T08:32:24.018Z,7.89
2023-11-23T08:33:19.590Z,8.14
2023-11-23T08:34:15.197Z,8.34
2023-11-23T08:35:10.378Z,8.60
2023-11-23T08:36:05.583Z,8.88
2023-11-23T08:37:00.902Z,9.22
2023-11-23T08:37:56.202Z,9.14
2023-11-23T08:38:51.671Z,8.90
2023-11-23T08:39:46.961Z,8.70
2023-11-23T08:40:42.282Z,8.38
2023-11-23T08:41:37.706Z,8.40
2023-11-23T08:42:33.042Z,8.55
2023-11-23T08:43:28.338Z,9.00
2023-11-23T08:44:24.059Z,9.05
2023-11-23T08:45:19.245Z,9.35
2023-11-23T08:46:14.556Z,9.49
2023-11-23T08:47:09.986Z,9.69
2023-11-23T08:48:05.397Z,9.89
2023-11-23T08:49:00.720Z,10.04
2023-11-23T08:49:56.293Z,9.93
2023-11-23T08:50:51.733Z,9.49
2023-11-23T08:51:47.085Z,8.88
2023-11-23T08:52:42.496Z,8.53
2023-11-23T08:53:37.849Z,8.38
2023-11-23T08:54:33.192Z,8.31
2023-11-23T08:55:28.717Z,8.32
2023-11-23T08:56:23.879Z,8.34
2023-11-23T08:57:19.409Z,8.34
2023-11-23T08:58:14.731Z,8.21
2023-11-23T08:59:10.189Z,8.38
2023-11-23T09:00:05.533Z,8.91
2023-11-23T09:01:00.878Z,9.46
2023-11-23T09:02:02.121Z,9.81
2023-11-23T09:02:52.975Z,10.17
2023-11-23T09:03:47.199Z,9.62
2023-11-23T09:04:45.271Z,9.49
2023-11-23T09:05:38.022Z,9.09
2023-11-23T09:06:33.340Z,8.83
2023-11-23T09:07:28.625Z,8.56
2023-11-23T09:08:23.996Z,8.52
2023-11-23T09:09:19.900Z,8.80
2023-11-23T09:10:14.666Z,9.27
2023-11-23T09:11:09.976Z,9.08
2023-11-23T09:12:05.452Z,8.71
2023-11-23T09:13:00.709Z,8.84
2023-11-23T09:13:56.096Z,8.66
2023-11-23T09:14:51.404Z,8.88
2023-11-23T09:15:46.921Z,8.97
2023-11-23T09:16:42.055Z,9.14
2023-11-23T09:17:37.619Z,9.20
2023-11-23T09:18:32.909Z,9.55
2023-11-23T09:19:28.239Z,9.66
2023-11-23T09:20:23.849Z,9.50
2023-11-23T09:21:19.876Z,9.61
2023-11-23T09:22:14.370Z,9.98
2023-11-23T09:23:09.784Z,10.18
2023-11-23T09:24:05.205Z,10.52
2023-11-23T09:25:00.714Z,10.32
2023-11-23T09:25:56.317Z,10.13
2023-11-23T09:26:51.591Z,10.00
2023-11-23T09:27:46.927Z,9.96
2023-11-23T09:28:42.355Z,10.32
2023-11-23T09:29:37.714Z,10.23
2023-11-23T09:30:33.202Z,9.76
2023-11-23T09:31:28.576Z,9.75
2023-11-23T09:32:23.884Z,10.11
2023-11-23T09:33:20.562Z,10.36
2023-11-23T09:34:14.775Z,10.30
2023-11-23T09:35:10.165Z,10.16
2023-11-23T09:36:05.730Z,10.43
2023-11-23T09:37:00.922Z,10.73
2023-11-23T09:37:56.442Z,10.91
2023-11-23T09:38:51.822Z,10.82
2023-11-23T09:39:47.392Z,10.87
2023-11-23T09:40:42.699Z,11.20
2023-11-23T09:41:38.117Z,11.46
2023-11-23T09:42:33.486Z,11.85
2023-11-23T09:43:28.854Z,11.91
2023-11-23T09:44:24.299Z,11.85
2023-11-23T09:45:21.143Z,11.44
2023-11-23T09:46:15.216Z,10.98
2023-11-23T09:47:10.642Z,10.57
2023-11-23T09:48:05.959Z,10.49
2023-11-23T09:49:01.541Z,10.08
2023-11-23T09:49:56.772Z,10.21
2023-11-23T09:50:52.262Z,10.63
2023-11-23T09:51:47.502Z,11.14
2023-11-23T09:52:43.025Z,11.64
2023-11-23T09:53:38.491Z,11.81
2023-11-23T09:54:34.006Z,11.18
2023-11-23T09:55:29.165Z,10.84
2023-11-23T09:56:24.700Z,10.51
2023-11-23T09:57:20.018Z,10.14
2023-11-23T09:58:15.367Z,9.64
2023-11-23T09:59:10.711Z,9.83
2023-11-23T10:00:06.240Z,9.68
2023-11-23T10:01:01.577Z,9.73
2023-11-23T10:01:57.020Z,9.93
2023-11-23T10:02:52.366Z,9.99
2023-11-23T10:03:47.783Z,10.46
2023-11-23T10:04:43.162Z,10.59
2023-11-23T10:05:38.864Z,10.89
2023-11-23T10:06:34.258Z,11.36
2023-11-23T10:07:29.699Z,11.28
2023-11-23T10:08:25.045Z,11.09
2023-11-23T10:09:20.892Z,10.95
2023-11-23T10:10:15.951Z,11.05
2023-11-23T10:11:11.524Z,10.81
2023-11-23T10:12:07.279Z,10.58
2023-11-23T10:13:02.542Z,10.80
2023-11-23T10:13:57.885Z,11.20
2023-11-23T10:14:53.289Z,11.66
2023-11-23T10:15:48.717Z,12.10
2023-11-23T10:16:44.135Z,12.43
2023-11-23T10:17:39.631Z,12.63
2023-11-23T10:18:35.016Z,12.11
2023-11-23T10:19:30.381Z,11.83
2023-11-23T10:20:25.825Z,11.85
2023-11-23T10:21:21.240Z,11.80
2023-11-23T10:22:16.779Z,12.18
2023-11-23T10:23:12.025Z,12.35
2023-11-23T10:24:07.423Z,12.13
2023-11-23T10:25:02.790Z,11.28
2023-11-23T10:25:59.400Z,11.01
2023-11-23T10:26:53.614Z,11.09
2023-11-23T10:27:49.061Z,11.37
2023-11-23T10:28:44.533Z,11.59
2023-11-23T10:29:39.907Z,11.90
2023-11-23T10:30:35.436Z,11.76
2023-11-23T10:31:30.994Z,11.76
2023-11-23T10:32:26.462Z,11.83
2023-11-23T10:33:22.031Z,11.87
2023-11-23T10:34:17.428Z,11.94
2023-11-23T10:35:12.764Z,12.23
2023-11-23T10:36:08.222Z,12.54
2023-11-23T10:37:03.719Z,12.26
2023-11-23T10:37:59.070Z,11.73
2023-11-23T10:38:54.507Z,11.67
2023-11-23T10:39:49.987Z,11.55
2023-11-23T10:40:45.286Z,11.44
2023-11-23T10:41:40.675Z,10.92
2023-11-23T10:42:36.145Z,11.24
2023-11-23T10:43:31.520Z,11.58
2023-11-23T10:44:27.171Z,11.59
2023-11-23T10:45:22.999Z,11.30
2023-11-23T10:46:17.840Z,11.29
2023-11-23T10:47:13.300Z,11.17
2023-11-23T10:48:08.728Z,10.76
2023-11-23T10:49:04.134Z,10.56
2023-11-23T10:49:59.671Z,10.57
2023-11-23T10:50:56.360Z,10.76
2023-11-23T10:51:50.753Z,11.08
2023-11-23T10:52:45.937Z,10.86
2023-11-23T10:53:41.629Z,10.32
2023-11-23T10:54:36.858Z,10.53
2023-11-23T10:55:32.327Z,11.06
2023-11-23T10:56:28.502Z,10.95
2023-11-23T10:57:25.369Z,10.97
2023-11-23T10:58:19.383Z,11.30
2023-11-23T10:59:14.697Z,11.87
2023-11-23T11:00:10.028Z,12.34
2023-11-23T11:01:05.676Z,12.68
2023-11-23T11:02:01.166Z,12.46
2023-11-23T11:02:56.734Z,11.68
2023-11-23T11:03:52.021Z,11.75
2023-11-23T11:04:47.504Z,11.72
2023-11-23T11:05:47.406Z,11.52
2023-11-23T11:06:42.441Z,11.57
2023-11-23T11:07:37.800Z,11.65
2023-11-23T11:08:33.237Z,11.70
2023-11-23T11:09:30.475Z,11.50
2023-11-23T11:10:24.057Z,11.53
2023-11-23T11:11:19.416Z,11.27
2023-11-23T11:12:15.043Z,10.84
2023-11-23T11:13:10.191Z,10.58
2023-11-23T11:14:05.793Z,10.55
2023-11-23T11:15:01.007Z,10.54
2023-11-23T11:15:56.545Z,10.75
2023-11-23T11:16:52.057Z,10.65
2023-11-23T11:17:47.575Z,10.26
2023-11-23T11:18:42.792Z,10.16
2023-11-23T11:19:37.891Z,10.33
2023-11-23T11:20:32.952Z,10.52
2023-11-23T11:21:30.117Z,10.82
2023-11-23T11:22:23.309Z,10.86
2023-11-23T11:23:18.375Z,11.19
2023-11-23T11:24:13.434Z,11.26
2023-11-23T11:25:08.524Z,11.05
2023-11-23T11:26:03.533Z,10.86
2023-11-23T11:27:00.376Z,10.87
2023-11-23T11:27:55.345Z,11.25
2023-11-23T11:28:50.467Z,11.68
2023-11-23T11:29:45.941Z,11.82
2023-11-23T11:30:40.726Z,11.50
2023-11-23T11:31:35.744Z,11.17
2023-11-23T11:32:30.855Z,10.87
2023-11-23T11:33:25.918Z,10.98
2023-11-23T11:34:20.876Z,11.29
2023-11-23T11:35:15.962Z,11.63
2023-11-23T11:36:12.356Z,11.92
2023-11-23T11:37:07.738Z,11.86
2023-11-23T11:38:03.627Z,11.99
2023-11-23T11:38:59.166Z,12.13
2023-11-23T11:39:54.494Z,12.06
2023-11-23T11:40:50.441Z,11.89
2023-11-23T11:41:45.660Z,11.53
2023-11-23T11:42:41.840Z,11.05
2023-11-23T11:43:36.873Z,11.01
2023-11-23T11:44:32.266Z,10.79
2023-11-23T11:45:28.360Z,10.60
2023-11-23T11:46:23.700Z,10.53
2023-11-23T11:47:19.164Z,10.60
2023-11-23T11:48:15.459Z,10.82
2023-11-23T11:49:10.860Z,10.79
2023-11-23T11:50:06.702Z,10.81
2023-11-23T11:51:02.114Z,10.86
2023-11-23T11:51:57.478Z,10.87
2023-11-23T11:52:53.200Z,10.80
2023-11-23T11:53:48.597Z,10.51
2023-11-23T11:54:44.430Z,10.55
2023-11-23T11:55:39.682Z,10.54
2023-11-23T11:56:35.019Z,10.39
2023-11-23T11:57:30.935Z,10.32
2023-11-23T11:58:26.291Z,10.52
2023-11-23T11:59:21.682Z,10.49
2023-11-23T12:00:18.575Z,10.42
2023-11-23T12:01:13.461Z,10.37
2023-11-23T12:02:09.499Z,10.34
2023-11-23T12:03:05.199Z,10.32
2023-11-23T12:04:00.398Z,10.24
2023-11-23T12:04:56.082Z,9.97
2023-11-23T12:05:51.374Z,9.56
2023-11-23T12:06:47.224Z,9.17
2023-11-23T12:07:42.709Z,8.88
2023-11-23T12:08:38.050Z,8.72
2023-11-23T12:09:38.811Z,8.38
2023-11-23T12:10:30.325Z,8.18
2023-11-23T12:11:27.034Z,7.92
2023-11-23T12:12:19.831Z,7.87